Time;durP1;ratioP1;P1;durP2;ratioP2;P2;SDS_P1;SDS_P2;PMS_P1;PMS_P2;Temp;Humidity;BMP_temperature;BMP_pressure;BME280_temperature;BME280_humidity;BME280_pressure;Samples;Min_cycle;Max_cycle;Signal;HPM_P1;HPM_P2
2022/01/16 00:00:27;;;;;;;31.87;9.83;;;;;;;-141.59;100.00;61776.25;4947298;28;20220;-82
2022/01/16 00:05:40;;;;;;;33.23;9.73;;;;;;;-141.59;100.00;61776.25;4963855;28;20366;-83
2022/01/16 00:08:07;;;;;;;28.27;10.33;;;;;;;-141.59;100.00;61776.25;4946603;28;20251;-82
2022/01/16 00:10:34;;;;;;;43.00;10.70;;;;;;;-141.59;100.00;61776.25;4945673;28;20211;-83
2022/01/16 00:13:01;;;;;;;53.60;9.77;;;;;;;-141.59;100.00;61776.25;4946401;28;20212;-83
2022/01/16 00:15:29;;;;;;;25.37;9.20;;;;;;;-141.59;100.00;61776.25;4962577;28;20283;-82
2022/01/16 00:18:00;;;;;;;61.23;9.97;;;;;;;-141.59;100.00;61776.25;4951024;28;20224;-83
2022/01/16 00:20:29;;;;;;;15.63;9.00;;;;;;;-141.59;100.00;61776.25;4951445;28;20228;-83
2022/01/16 00:22:58;;;;;;;46.00;9.67;;;;;;;-141.59;100.00;61776.25;4964973;28;20202;-83
2022/01/16 00:25:25;;;;;;;62.47;9.90;;;;;;;-141.59;100.00;61776.25;4952613;28;20217;-83
2022/01/16 00:27:53;;;;;;;55.23;9.53;;;;;;;-141.59;100.00;61776.25;4945290;28;20218;-83
2022/01/16 00:30:20;;;;;;;51.63;10.50;;;;;;;-141.59;100.00;61776.25;4965473;28;20215;-83
2022/01/16 00:32:47;;;;;;;28.87;9.37;;;;;;;-141.59;100.00;61776.25;4944870;28;20285;-83
2022/01/16 00:35:16;;;;;;;41.50;10.07;;;;;;;-141.59;100.00;61776.25;4962262;28;20203;-83
2022/01/16 00:37:46;;;;;;;24.57;9.30;;;;;;;-141.59;100.00;61776.25;4965078;28;20499;-83
2022/01/16 00:40:15;;;;;;;23.97;9.20;;;;;;;-141.59;100.00;61776.25;4963500;28;20208;-83
2022/01/16 00:42:42;;;;;;;27.40;9.33;;;;;;;-141.59;100.00;61776.25;4953091;28;20233;-82
2022/01/16 00:45:10;;;;;;;23.07;8.67;;;;;;;-141.59;100.00;61776.25;4963838;28;20232;-83
2022/01/16 00:47:37;;;;;;;22.13;8.87;;;;;;;-141.59;100.00;61776.25;4948255;28;20231;-83
2022/01/16 00:50:05;;;;;;;26.47;9.77;;;;;;;-141.59;100.00;61776.25;4964843;28;20284;-83
2022/01/16 00:52:32;;;;;;;21.90;8.53;;;;;;;-141.59;100.00;61776.25;4957853;28;20287;-83
2022/01/16 00:55:03;;;;;;;24.30;9.23;;;;;;;-141.59;100.00;61776.25;4951348;28;20311;-83
2022/01/16 00:57:31;;;;;;;18.33;7.90;;;;;;;-141.59;100.00;61776.25;4948012;28;20239;-83
2022/01/16 00:59:59;;;;;;;30.70;9.27;;;;;;;-141.59;100.00;61776.25;4952006;28;20332;-82
2022/01/16 01:02:26;;;;;;;20.10;8.37;;;;;;;-141.59;100.00;61776.25;4939051;28;20208;-83
2022/01/16 01:04:53;;;;;;;19.30;8.03;;;;;;;-141.59;100.00;61776.25;4952063;28;20208;-83
2022/01/16 01:07:20;;;;;;;30.50;8.70;;;;;;;-141.59;100.00;61776.25;4961739;28;20228;-82
2022/01/16 01:09:48;;;;;;;18.80;8.13;;;;;;;-141.59;100.00;61776.25;4945238;28;20200;-82
2022/01/16 01:12:25;;;;;;;20.00;7.73;;;;;;;-141.59;100.00;61776.25;4960202;28;20213;-83
2022/01/16 01:15:06;;;;;;;17.50;8.27;;;;;;;-141.59;100.00;61776.25;4973247;28;20216;-83
2022/01/16 01:17:37;;;;;;;31.20;8.60;;;;;;;-141.59;100.00;61776.25;4945474;28;20226;-83
2022/01/16 01:20:06;;;;;;;16.10;8.30;;;;;;;-141.59;100.00;61776.25;4942988;28;20209;-83
2022/01/16 01:22:33;;;;;;;30.03;9.10;;;;;;;-141.59;100.00;61776.25;4952728;28;20212;-83
2022/01/16 01:25:00;;;;;;;15.37;8.20;;;;;;;-141.59;100.00;61776.25;4950675;28;20221;-83
2022/01/16 01:27:31;;;;;;;20.03;7.87;;;;;;;-141.59;100.00;61776.25;4948050;28;20224;-83
2022/01/16 01:30:03;;;;;;;17.03;7.73;;;;;;;-141.59;100.00;61776.25;4946609;28;20216;-82
2022/01/16 01:32:32;;;;;;;14.93;8.30;;;;;;;-141.59;100.00;61776.25;4965937;28;20294;-83
2022/01/16 01:35:00;;;;;;;11.83;7.40;;;;;;;-141.59;100.00;61776.25;4955247;28;20214;-83
2022/01/16 01:37:27;;;;;;;14.10;7.33;;;;;;;-141.59;100.00;61776.25;4951354;28;20308;-82
2022/01/16 01:39:55;;;;;;;21.43;7.77;;;;;;;-141.59;100.00;61776.25;4964483;28;20212;-83
2022/01/16 01:42:29;;;;;;;24.97;7.70;;;;;;;-141.59;100.00;61776.25;4948965;28;20263;-83
2022/01/16 01:53:16;;;;;;;13.97;7.57;;;;;;;-141.59;100.00;61776.25;4947171;28;20217;-83
2022/01/16 01:55:44;;;;;;;17.60;8.07;;;;;;;-141.59;100.00;61776.25;4949003;28;20212;-82
2022/01/16 01:58:14;;;;;;;16.23;7.83;;;;;;;-141.59;100.00;61776.25;4962895;28;20223;-82
2022/01/16 02:00:43;;;;;;;14.70;7.80;;;;;;;-141.59;100.00;61776.25;4949025;28;20219;-83
2022/01/16 02:03:16;;;;;;;20.60;7.77;;;;;;;-141.59;100.00;61776.25;4948365;28;20316;-82
2022/01/16 02:05:44;;;;;;;28.53;7.83;;;;;;;-141.59;100.00;61776.25;4963019;28;20304;-82
2022/01/16 02:08:12;;;;;;;19.67;7.00;;;;;;;-141.59;100.00;61776.25;4945982;28;20328;-83
2022/01/16 02:10:40;;;;;;;14.00;7.30;;;;;;;-141.59;100.00;61776.25;4961925;28;20206;-82
2022/01/16 02:13:11;;;;;;;15.73;6.73;;;;;;;-141.59;100.00;61776.25;4947345;28;20219;-82
2022/01/16 02:30:18;;;;;;;15.93;7.47;;;;;;;-141.59;100.00;61776.25;4942055;28;20252;-82
2022/01/16 02:32:50;;;;;;;67.07;11.17;;;;;;;-141.59;100.00;61776.25;4958199;28;20214;-83
2022/01/16 02:35:16;;;;;;;33.57;11.30;;;;;;;-141.59;100.00;61776.25;4959882;28;20205;-82
2022/01/16 02:37:43;;;;;;;49.70;9.33;;;;;;;-141.59;100.00;61776.25;4944316;29;20253;-83
2022/01/16 02:40:18;;;;;;;21.20;7.67;;;;;;;-141.59;100.00;61776.25;4934890;28;20214;-82
2022/01/16 02:42:50;;;;;;;23.87;7.23;;;;;;;-141.59;100.00;61776.25;4947010;29;20205;-82
2022/01/16 02:45:29;;;;;;;29.47;7.80;;;;;;;-141.59;100.00;61776.25;4941007;28;20222;-83
2022/01/16 02:47:58;;;;;;;35.80;8.00;;;;;;;-141.59;100.00;61776.25;4940637;29;20214;-83
2022/01/16 02:50:25;;;;;;;28.83;7.80;;;;;;;-141.59;100.00;61776.25;4942262;29;20265;-82
2022/01/16 02:52:53;;;;;;;94.50;9.83;;;;;;;-141.59;100.00;61776.25;4958323;28;20311;-83
2022/01/16 02:55:22;;;;;;;95.67;9.77;;;;;;;-141.59;100.00;61776.25;4947365;28;20200;-83
2022/01/16 02:57:50;;;;;;;76.70;9.60;;;;;;;-141.59;100.00;61776.25;4945871;29;20229;-82
2022/01/16 03:00:18;;;;;;;157.43;11.80;;;;;;;-141.59;100.00;61776.25;4945357;28;20212;-83
2022/01/16 03:02:45;;;;;;;71.83;9.63;;;;;;;-141.59;100.00;61776.25;4944782;29;20213;-82
2022/01/16 03:05:14;;;;;;;79.73;9.63;;;;;;;-141.59;100.00;61776.25;4943010;29;20212;-82
2022/01/16 03:07:42;;;;;;;20.00;7.70;;;;;;;-141.59;100.00;61776.25;4936392;28;20246;-82
2022/01/16 03:12:54;;;;;;;18.93;7.93;;;;;;;-141.59;100.00;61776.25;4924550;29;20204;-82
2022/01/16 03:15:22;;;;;;;15.43;8.30;;;;;;;-141.59;100.00;61776.25;4935694;28;20203;-83
2022/01/16 03:23:18;;;;;;;21.50;8.80;;;;;;;-141.59;100.00;61776.25;4926668;29;20298;-82
2022/01/16 03:25:45;;;;;;;33.53;8.77;;;;;;;-141.59;100.00;61776.25;4928919;29;20231;-82
2022/01/16 03:28:14;;;;;;;22.70;8.87;;;;;;;-141.59;100.00;61776.25;4927162;29;20215;-82
2022/01/16 03:30:42;;;;;;;17.87;7.53;;;;;;;-141.59;100.00;61776.25;4942379;29;20303;-82
2022/01/16 03:33:09;;;;;;;46.93;9.10;;;;;;;-141.59;100.00;61776.25;4919990;29;20253;-82
2022/01/16 03:35:36;;;;;;;36.37;9.80;;;;;;;-141.59;100.00;61776.25;4942144;28;20211;-82
2022/01/16 03:38:03;;;;;;;52.03;9.53;;;;;;;-141.59;100.00;61776.25;4919370;29;20291;-82
2022/01/16 03:40:30;;;;;;;17.83;7.17;;;;;;;-141.59;100.00;61776.25;4943955;28;20219;-82
2022/01/16 03:43:04;;;;;;;38.17;8.80;;;;;;;-141.59;100.00;61776.25;4922236;29;20206;-82
2022/01/16 03:45:33;;;;;;;22.33;8.37;;;;;;;-141.59;100.00;61776.25;4943369;28;20272;-82
2022/01/16 03:48:00;;;;;;;31.70;8.73;;;;;;;-141.59;100.00;61776.25;4937809;28;20235;-82
2022/01/16 03:50:27;;;;;;;34.20;8.40;;;;;;;-141.59;100.00;61776.25;4949957;28;20213;-82
2022/01/16 03:52:54;;;;;;;21.50;8.33;;;;;;;-141.59;100.00;61776.25;4930560;29;20207;-82
2022/01/16 03:55:21;;;;;;;14.90;7.80;;;;;;;-141.59;100.00;61776.25;4924857;29;20245;-82
2022/01/16 03:57:48;;;;;;;18.00;8.37;;;;;;;-141.59;100.00;61776.25;4942994;28;20235;-82
2022/01/16 04:00:15;;;;;;;15.20;7.03;;;;;;;-141.59;100.00;61776.25;4946224;28;20218;-82
2022/01/16 04:02:44;;;;;;;14.97;7.23;;;;;;;-141.59;100.00;61776.25;4929422;29;20217;-82
2022/01/16 04:05:11;;;;;;;19.57;7.27;;;;;;;-141.59;100.00;61776.25;4921236;29;20295;-82
2022/01/16 04:07:38;;;;;;;14.70;7.53;;;;;;;-141.59;100.00;61776.25;4944598;28;20245;-82
2022/01/16 04:10:07;;;;;;;17.77;8.37;;;;;;;-141.59;100.00;61776.25;4953933;28;20229;-82
2022/01/16 04:12:37;;;;;;;17.23;8.13;;;;;;;-141.59;100.00;61776.25;4963828;28;20209;-82
2022/01/16 04:17:51;;;;;;;19.47;9.20;;;;;;;-141.59;100.00;61776.25;4963145;28;20211;-82
2022/01/16 04:20:18;;;;;;;18.17;8.73;;;;;;;-141.59;100.00;61776.25;4964320;28;20201;-82
2022/01/16 04:22:46;;;;;;;16.93;8.10;;;;;;;-141.59;100.00;61776.25;4949576;28;20240;-82
2022/01/16 04:25:14;;;;;;;19.13;8.77;;;;;;;-141.59;100.00;61776.25;4964752;28;20209;-82
2022/01/16 04:27:41;;;;;;;18.73;8.60;;;;;;;-141.59;100.00;61776.25;4945319;28;20225;-82
2022/01/16 04:30:09;;;;;;;19.87;8.53;;;;;;;-141.59;100.00;61776.25;4945135;29;20302;-82
2022/01/16 04:32:36;;;;;;;21.33;8.37;;;;;;;-141.59;100.00;61776.25;4948638;28;20214;-82
2022/01/16 04:35:06;;;;;;;18.73;8.53;;;;;;;-141.59;100.00;61776.25;4950665;28;20208;-82
2022/01/16 04:37:33;;;;;;;21.73;8.63;;;;;;;-141.59;100.00;61776.25;4948965;28;20236;-83
2022/01/16 04:40:02;;;;;;;16.43;8.27;;;;;;;-141.59;100.00;61776.25;4963535;28;20218;-82
2022/01/16 04:45:15;;;;;;;19.53;8.77;;;;;;;-141.59;100.00;61776.25;4946393;29;20284;-82
2022/01/16 04:47:42;;;;;;;21.57;8.57;;;;;;;-141.59;100.00;61776.25;4948566;28;20201;-82
2022/01/16 04:50:13;;;;;;;34.07;8.60;;;;;;;-141.59;100.00;61776.25;4947757;28;20223;-82
2022/01/16 04:52:42;;;;;;;21.80;8.50;;;;;;;-141.59;100.00;61776.25;4948783;28;20210;-82
2022/01/16 04:55:11;;;;;;;21.40;8.00;;;;;;;-141.59;100.00;61776.25;4936482;28;20206;-82
2022/01/16 04:57:38;;;;;;;17.33;7.97;;;;;;;-141.59;100.00;61776.25;4950472;28;20217;-82
2022/01/16 05:00:09;;;;;;;16.90;8.00;;;;;;;-141.59;100.00;61776.25;4961953;28;20276;-82
2022/01/16 05:02:36;;;;;;;20.83;8.60;;;;;;;-141.59;100.00;61776.25;4940557;28;20214;-82
2022/01/16 05:05:04;;;;;;;19.27;7.87;;;;;;;-141.59;100.00;61776.25;4942176;28;20216;-82
2022/01/16 05:07:32;;;;;;;20.53;8.30;;;;;;;-141.59;100.00;61776.25;4947953;28;20234;-82
2022/01/16 05:09:59;;;;;;;15.27;7.33;;;;;;;-141.59;100.00;61776.25;4943125;29;20197;-82
2022/01/16 05:12:32;;;;;;;21.33;8.03;;;;;;;-141.59;100.00;61776.25;4947250;29;20213;-82
2022/01/16 05:17:45;;;;;;;17.50;7.87;;;;;;;-141.59;100.00;61776.25;4958595;28;20244;-82
2022/01/16 05:20:12;;;;;;;16.00;8.10;;;;;;;-141.59;100.00;61776.25;4959044;28;20217;-82
2022/01/16 05:22:41;;;;;;;18.23;7.83;;;;;;;-141.59;100.00;61776.25;4963885;28;20204;-82
2022/01/16 05:25:11;;;;;;;20.33;8.87;;;;;;;-141.59;100.00;61776.25;4944415;28;20210;-82
2022/01/16 05:27:38;;;;;;;20.17;8.20;;;;;;;-141.59;100.00;61776.25;4959425;28;20209;-82
2022/01/16 05:30:07;;;;;;;14.73;7.90;;;;;;;-141.59;100.00;61776.25;4946051;28;20216;-82
2022/01/16 05:32:34;;;;;;;17.40;7.97;;;;;;;-141.59;100.00;61776.25;4945901;28;20211;-82
2022/01/16 05:35:01;;;;;;;17.37;8.10;;;;;;;-141.59;100.00;61776.25;4944980;28;20208;-82
2022/01/16 05:37:28;;;;;;;23.03;8.77;;;;;;;-141.59;100.00;61776.25;4942051;29;20212;-82
2022/01/16 05:39:57;;;;;;;21.27;8.40;;;;;;;-141.59;100.00;61776.25;4947489;28;20233;-82
2022/01/16 05:42:24;;;;;;;19.57;9.67;;;;;;;-141.59;100.00;61776.25;4948627;29;20212;-82
2022/01/16 05:44:51;;;;;;;36.63;8.97;;;;;;;-141.59;100.00;61776.25;4942710;29;20210;-82
2022/01/16 05:47:18;;;;;;;29.57;8.33;;;;;;;-141.59;100.00;61776.25;4947215;28;20211;-82
2022/01/16 05:49:46;;;;;;;23.87;8.63;;;;;;;-141.59;100.00;61776.25;4958324;28;20208;-84
2022/01/16 05:52:13;;;;;;;24.87;8.23;;;;;;;-141.59;100.00;61776.25;4959184;28;20292;-82
2022/01/16 05:54:41;;;;;;;34.20;7.97;;;;;;;-141.59;100.00;61776.25;4952259;28;20214;-82
2022/01/16 05:57:10;;;;;;;23.73;8.80;;;;;;;-141.59;100.00;61776.25;4947837;28;20214;-82
2022/01/16 05:59:37;;;;;;;23.53;9.60;;;;;;;-141.59;100.00;61776.25;4960419;28;20242;-82
2022/01/16 06:02:04;;;;;;;21.37;8.43;;;;;;;-141.59;100.00;61776.25;4967531;28;20204;-82
2022/01/16 06:04:31;;;;;;;22.20;8.53;;;;;;;-141.59;100.00;61776.25;4946160;28;20214;-82
2022/01/16 06:07:00;;;;;;;17.30;7.70;;;;;;;-141.59;100.00;61776.25;4960291;28;20242;-82
2022/01/16 06:09:27;;;;;;;22.83;8.07;;;;;;;-141.59;100.00;61776.25;4951682;28;20344;-82
2022/01/16 06:11:55;;;;;;;14.73;7.73;;;;;;;-141.59;100.00;61776.25;4931479;29;20214;-82
2022/01/16 06:14:24;;;;;;;14.90;7.70;;;;;;;-141.59;100.00;61776.25;4940318;28;20210;-83
2022/01/16 06:16:52;;;;;;;13.23;6.83;;;;;;;-141.59;100.00;61776.25;4943667;29;20218;-82
2022/01/16 06:19:19;;;;;;;13.70;7.60;;;;;;;-141.59;100.00;61776.25;4947135;29;20489;-82
2022/01/16 06:21:47;;;;;;;12.90;6.50;;;;;;;-141.59;100.00;61776.25;4946022;28;20234;-82
2022/01/16 06:24:14;;;;;;;16.47;8.10;;;;;;;-141.59;100.00;61776.25;4945723;28;20215;-82
2022/01/16 06:26:41;;;;;;;13.17;7.20;;;;;;;-141.59;100.00;61776.25;4957984;28;20386;-84
2022/01/16 06:29:08;;;;;;;16.80;7.17;;;;;;;-141.59;100.00;61776.25;4946740;28;20213;-82
2022/01/16 06:31:37;;;;;;;14.57;7.10;;;;;;;-141.59;100.00;61776.25;4959798;28;20217;-82
2022/01/16 06:34:06;;;;;;;13.67;6.97;;;;;;;-141.59;100.00;61776.25;4956512;28;20209;-82
2022/01/16 06:36:33;;;;;;;13.43;7.20;;;;;;;-141.59;100.00;61776.25;4938256;28;20277;-82
2022/01/16 06:39:01;;;;;;;11.77;7.00;;;;;;;-141.59;100.00;61776.25;4945770;29;20319;-82
2022/01/16 06:41:28;;;;;;;15.27;7.90;;;;;;;-141.59;100.00;61776.25;4943366;29;20218;-82
2022/01/16 06:43:55;;;;;;;15.97;7.50;;;;;;;-141.59;100.00;61776.25;4947796;29;20212;-82
2022/01/16 06:46:22;;;;;;;13.00;7.50;;;;;;;-141.59;100.00;61776.25;4946320;28;20210;-82
2022/01/16 06:48:51;;;;;;;14.70;8.27;;;;;;;-141.59;100.00;61776.25;4944267;28;20216;-83
2022/01/16 06:51:19;;;;;;;17.83;8.47;;;;;;;-141.59;100.00;61776.25;4961430;28;20214;-82
2022/01/16 06:53:47;;;;;;;20.50;8.10;;;;;;;-141.59;100.00;61776.25;4942190;28;20217;-82
2022/01/16 06:56:15;;;;;;;15.83;8.13;;;;;;;-141.59;100.00;61776.25;4947874;28;20628;-82
2022/01/16 06:58:42;;;;;;;18.93;9.90;;;;;;;-141.59;100.00;61776.25;4944702;29;20205;-82
2022/01/16 07:01:10;;;;;;;18.70;9.37;;;;;;;-141.59;100.00;61776.25;4945194;28;20216;-82
2022/01/16 07:03:37;;;;;;;15.93;8.33;;;;;;;-141.59;100.00;61776.25;4944545;28;20206;-82
2022/01/16 07:06:06;;;;;;;15.97;7.93;;;;;;;-141.59;100.00;61776.25;4962135;28;20225;-82
2022/01/16 07:08:33;;;;;;;17.67;7.50;;;;;;;-141.59;100.00;61776.25;4952821;28;20320;-82
2022/01/16 07:11:02;;;;;;;29.07;10.57;;;;;;;-141.59;100.00;61776.25;4963497;28;20252;-82
2022/01/16 07:13:30;;;;;;;25.20;11.63;;;;;;;-141.59;100.00;61776.25;4946859;28;20208;-82
2022/01/16 07:15:57;;;;;;;32.53;11.73;;;;;;;-141.59;100.00;61776.25;4962129;28;20218;-82
2022/01/16 07:18:24;;;;;;;29.63;13.23;;;;;;;-141.59;100.00;61776.25;4943651;29;20291;-82
2022/01/16 07:20:51;;;;;;;27.53;12.73;;;;;;;-141.59;100.00;61776.25;4946289;29;20235;-82
2022/01/16 07:23:20;;;;;;;23.90;10.17;;;;;;;-141.59;100.00;61776.25;4939895;28;20215;-83
2022/01/16 07:25:49;;;;;;;20.17;9.73;;;;;;;-141.59;100.00;61776.25;4940943;28;20296;-83
2022/01/16 07:28:16;;;;;;;24.80;9.60;;;;;;;-141.59;100.00;61776.25;4948532;28;20309;-82
2022/01/16 07:30:44;;;;;;;22.73;9.47;;;;;;;-141.59;100.00;61776.25;4963159;28;20201;-82
2022/01/16 07:33:12;;;;;;;27.70;8.47;;;;;;;-141.59;100.00;61776.25;4948424;29;20272;-82
2022/01/16 07:35:39;;;;;;;18.73;8.37;;;;;;;-141.59;100.00;61776.25;4948536;29;20300;-82
2022/01/16 07:38:08;;;;;;;23.50;9.30;;;;;;;-141.59;100.00;61776.25;4946080;28;20565;-82
2022/01/16 07:40:37;;;;;;;27.67;8.70;;;;;;;-141.59;100.00;61776.25;4946813;29;20232;-82
2022/01/16 07:43:05;;;;;;;15.37;7.40;;;;;;;-141.59;100.00;61776.25;4947393;28;20213;-82
2022/01/16 07:45:33;;;;;;;27.70;8.37;;;;;;;-141.59;100.00;61776.25;4949924;28;20205;-81
2022/01/16 07:48:00;;;;;;;16.00;7.30;;;;;;;-141.59;100.00;61776.25;4956531;28;20222;-82
2022/01/16 07:50:27;;;;;;;13.07;7.60;;;;;;;-141.59;100.00;61776.25;4946568;29;20202;-82
2022/01/16 07:52:55;;;;;;;18.83;7.80;;;;;;;-141.59;100.00;61776.25;4946222;28;20297;-82
2022/01/16 07:55:25;;;;;;;31.43;8.27;;;;;;;-141.59;100.00;61776.25;4942647;28;20440;-82
2022/01/16 07:57:53;;;;;;;29.13;7.80;;;;;;;-141.59;100.00;61776.25;4947724;28;20209;-82
2022/01/16 08:00:21;;;;;;;20.37;8.77;;;;;;;-141.59;100.00;61776.25;4944313;28;20233;-82
2022/01/16 08:02:50;;;;;;;21.83;8.43;;;;;;;-141.59;100.00;61776.25;4947532;28;20233;-82
2022/01/16 08:05:18;;;;;;;18.97;8.30;;;;;;;-141.59;100.00;61776.25;4965281;28;20214;-84
2022/01/16 08:07:46;;;;;;;19.60;8.30;;;;;;;-141.59;100.00;61776.25;4942694;28;20234;-84
2022/01/16 08:10:14;;;;;;;25.50;9.13;;;;;;;-141.59;100.00;61776.25;4942291;28;20525;-82
2022/01/16 08:12:41;;;;;;;22.47;10.03;;;;;;;-141.59;100.00;61776.25;4945384;28;20300;-82
2022/01/16 08:15:10;;;;;;;24.17;11.30;;;;;;;-141.59;100.00;61776.25;4945160;29;20201;-82
2022/01/16 08:17:39;;;;;;;25.47;9.43;;;;;;;-141.59;100.00;61776.25;4939650;28;20232;-82
2022/01/16 08:20:08;;;;;;;28.43;10.23;;;;;;;-141.59;100.00;61776.25;4942768;28;20228;-82
2022/01/16 08:22:35;;;;;;;21.90;9.37;;;;;;;-141.59;100.00;61776.25;4958289;28;20208;-82
2022/01/16 08:25:03;;;;;;;19.30;8.67;;;;;;;-141.59;100.00;61776.25;4943677;28;20241;-81
2022/01/16 08:27:30;;;;;;;16.40;8.90;;;;;;;-141.59;100.00;61776.25;4949564;28;20208;-84
2022/01/16 08:29:57;;;;;;;21.77;9.07;;;;;;;-141.59;100.00;61776.25;4945445;28;20213;-84
2022/01/16 08:32:26;;;;;;;30.27;9.87;;;;;;;-141.59;100.00;61776.25;4942610;28;20210;-84
2022/01/16 08:34:53;;;;;;;20.80;9.43;;;;;;;-141.59;100.00;61776.25;4947651;28;20281;-82
2022/01/16 08:37:20;;;;;;;23.13;9.93;;;;;;;-141.59;100.00;61776.25;4960416;28;20311;-81
2022/01/16 08:39:47;;;;;;;22.07;10.97;;;;;;;-141.59;100.00;61776.25;4946133;28;20222;-82
2022/01/16 08:42:16;;;;;;;27.33;11.13;;;;;;;-141.59;100.00;61776.25;4945383;28;20212;-82
2022/01/16 08:44:43;;;;;;;29.30;10.40;;;;;;;-141.59;100.00;61776.25;4963189;28;20204;-81
2022/01/16 08:47:11;;;;;;;33.53;12.03;;;;;;;-141.59;100.00;61776.25;4943162;28;20211;-82
2022/01/16 08:49:39;;;;;;;32.70;12.07;;;;;;;-141.59;100.00;61776.25;4945533;29;20214;-82
2022/01/16 08:52:07;;;;;;;28.07;11.60;;;;;;;-141.59;100.00;61776.25;4944224;28;20216;-82
2022/01/16 08:54:34;;;;;;;24.90;10.93;;;;;;;-141.59;100.00;61776.25;4944779;28;20213;-82
2022/01/16 08:57:02;;;;;;;23.20;10.00;;;;;;;-141.59;100.00;61776.25;4946290;28;20226;-81
2022/01/16 08:59:29;;;;;;;21.00;9.97;;;;;;;-141.59;100.00;61776.25;4958239;28;20236;-82
2022/01/16 09:01:57;;;;;;;23.17;10.03;;;;;;;-141.59;100.00;61776.25;4946525;28;20212;-82
2022/01/16 09:04:24;;;;;;;24.57;9.87;;;;;;;-141.59;100.00;61776.25;4946708;28;20244;-82
2022/01/16 09:06:52;;;;;;;21.20;9.93;;;;;;;-141.59;100.00;61776.25;4943530;28;20229;-82
2022/01/16 09:09:19;;;;;;;21.90;10.70;;;;;;;-141.59;100.00;61776.25;4944962;28;20334;-81
2022/01/16 09:11:47;;;;;;;26.80;10.30;;;;;;;-141.59;100.00;61776.25;4943804;28;20207;-82
2022/01/16 09:14:15;;;;;;;21.30;9.60;;;;;;;-141.59;100.00;61776.25;4947710;28;20214;-82
2022/01/16 09:16:42;;;;;;;20.40;9.30;;;;;;;-141.59;100.00;61776.25;4947254;29;20218;-82
2022/01/16 09:19:09;;;;;;;27.77;9.53;;;;;;;-141.59;100.00;61776.25;4962635;28;20208;-82
2022/01/16 09:21:36;;;;;;;19.20;8.73;;;;;;;-141.59;100.00;61776.25;4948025;28;20298;-82
2022/01/16 09:24:05;;;;;;;23.93;8.67;;;;;;;-141.59;100.00;61776.25;4949061;28;20279;-82
2022/01/16 09:26:32;;;;;;;18.07;9.67;;;;;;;-141.59;100.00;61776.25;4941831;28;20233;-82
2022/01/16 09:29:00;;;;;;;16.50;8.47;;;;;;;-141.59;100.00;61776.25;4941939;28;20260;-82
2022/01/16 09:31:27;;;;;;;25.30;10.67;;;;;;;-141.59;100.00;61776.25;4947929;28;20297;-82
2022/01/16 09:33:56;;;;;;;20.80;10.20;;;;;;;-141.59;100.00;61776.25;4962700;28;20296;-82
2022/01/16 09:36:23;;;;;;;19.23;9.40;;;;;;;-141.59;100.00;61776.25;4942227;28;20201;-82
2022/01/16 09:38:50;;;;;;;18.67;8.40;;;;;;;-141.59;100.00;61776.25;4945363;28;20288;-82
2022/01/16 09:41:20;;;;;;;16.53;8.77;;;;;;;-141.59;100.00;61776.25;4938886;28;20230;-82
2022/01/16 09:43:48;;;;;;;19.23;9.93;;;;;;;-141.59;100.00;61776.25;4952096;28;20203;-82
2022/01/16 09:46:15;;;;;;;18.23;9.33;;;;;;;-141.59;100.00;61776.25;4958695;28;20215;-82
2022/01/16 09:48:43;;;;;;;22.43;10.33;;;;;;;-141.59;100.00;61776.25;4940699;28;20313;-82
2022/01/16 09:51:10;;;;;;;16.97;9.17;;;;;;;-141.59;100.00;61776.25;4954936;28;20214;-82
2022/01/16 09:53:41;;;;;;;14.90;8.87;;;;;;;-141.59;100.00;61776.25;4944636;29;20206;-82
2022/01/16 09:56:08;;;;;;;16.57;9.43;;;;;;;-141.59;100.00;61776.25;4932639;29;20296;-82
2022/01/16 09:58:38;;;;;;;19.07;9.93;;;;;;;-141.59;100.00;61776.25;4931624;28;20286;-82
2022/01/16 10:01:06;;;;;;;16.57;8.80;;;;;;;-141.59;100.00;61776.25;4946389;29;20229;-82
2022/01/16 10:03:34;;;;;;;16.53;9.70;;;;;;;-141.59;100.00;61776.25;4943183;28;20233;-83
2022/01/16 10:06:10;;;;;;;18.60;10.73;;;;;;;-141.59;100.00;61776.25;4955607;28;20236;-82
2022/01/16 10:08:39;;;;;;;16.93;9.87;;;;;;;-141.59;100.00;61776.25;4945944;28;20292;-82
2022/01/16 10:11:27;;;;;;;17.07;9.57;;;;;;;-141.59;100.00;61776.25;4961910;28;20214;-81
2022/01/16 10:14:02;;;;;;;15.53;9.27;;;;;;;-141.59;100.00;61776.25;4947423;28;20217;-82
2022/01/16 10:16:32;;;;;;;16.10;9.67;;;;;;;-141.59;100.00;61776.25;4946560;28;20208;-82
2022/01/16 10:19:02;;;;;;;14.63;9.10;;;;;;;-141.59;100.00;61776.25;4938990;28;20268;-84
2022/01/16 10:21:35;;;;;;;13.63;8.50;;;;;;;-141.59;100.00;61776.25;4943997;28;20225;-84
2022/01/16 10:24:20;;;;;;;16.37;10.13;;;;;;;-141.59;100.00;61776.25;4945606;28;20549;-82
2022/01/16 10:26:47;;;;;;;15.60;9.63;;;;;;;-141.59;100.00;61776.25;4957651;28;20233;-82
2022/01/16 10:29:21;;;;;;;13.97;8.90;;;;;;;-141.59;100.00;61776.25;4940819;28;20221;-82
2022/01/16 10:31:50;;;;;;;13.80;8.63;;;;;;;-141.59;100.00;61776.25;4960508;28;20210;-82
2022/01/16 10:34:26;;;;;;;14.27;8.50;;;;;;;-141.59;100.00;61776.25;4963636;28;20261;-82
2022/01/16 10:36:54;;;;;;;16.60;10.00;;;;;;;-141.59;100.00;61776.25;4949394;28;20237;-82
2022/01/16 10:39:22;;;;;;;13.17;7.83;;;;;;;-141.59;100.00;61776.25;4947388;28;20348;-83
2022/01/16 10:42:16;;;;;;;13.50;7.80;;;;;;;-141.59;100.00;61776.25;4948829;28;20228;-82
2022/01/16 10:44:46;;;;;;;13.50;7.63;;;;;;;-141.59;100.00;61776.25;4943002;29;20212;-82
2022/01/16 10:47:32;;;;;;;11.70;6.97;;;;;;;-141.59;100.00;61776.25;4944383;28;20207;-82
2022/01/16 10:50:13;;;;;;;12.83;7.53;;;;;;;-141.59;100.00;61776.25;4945245;28;20211;-85
2022/01/16 10:52:57;;;;;;;13.13;7.97;;;;;;;-141.59;100.00;61776.25;4941342;28;20209;-83
2022/01/16 10:55:32;;;;;;;11.70;7.33;;;;;;;-141.59;100.00;61776.25;4938054;28;20311;-83
2022/01/16 10:58:09;;;;;;;15.13;7.63;;;;;;;-141.59;100.00;61776.25;4944693;28;20218;-83
2022/01/16 11:00:39;;;;;;;11.43;6.47;;;;;;;-141.59;100.00;61776.25;4945367;29;20320;-83
2022/01/16 11:03:09;;;;;;;12.60;7.77;;;;;;;-141.59;100.00;61776.25;4945754;28;20210;-83
2022/01/16 11:05:39;;;;;;;13.23;6.97;;;;;;;-141.59;100.00;61776.25;4936614;29;20280;-83
2022/01/16 11:08:09;;;;;;;10.50;6.50;;;;;;;-141.59;100.00;61776.25;4946572;28;20238;-83
2022/01/16 11:10:38;;;;;;;12.27;7.00;;;;;;;-141.59;100.00;61776.25;4933158;29;20214;-83
2022/01/16 11:13:07;;;;;;;11.03;6.50;;;;;;;-141.59;100.00;61776.25;4947413;28;20208;-83
2022/01/16 11:15:36;;;;;;;10.17;6.27;;;;;;;-141.59;100.00;61776.25;4953324;28;20285;-83
2022/01/16 11:18:05;;;;;;;11.13;6.83;;;;;;;-141.59;100.00;61776.25;4947708;28;20211;-83
2022/01/16 11:20:35;;;;;;;10.47;6.60;;;;;;;-141.59;100.00;61776.25;4948486;28;20226;-83
2022/01/16 11:23:12;;;;;;;10.60;7.13;;;;;;;-141.59;100.00;61776.25;4957469;28;20219;-83
2022/01/16 11:25:40;;;;;;;10.77;7.17;;;;;;;-141.59;100.00;61776.25;4957408;28;20215;-83
2022/01/16 11:28:18;;;;;;;11.97;6.77;;;;;;;-141.59;100.00;61776.25;4948196;28;20531;-83
2022/01/16 11:30:48;;;;;;;9.47;6.37;;;;;;;-141.59;100.00;61776.25;4963578;28;20212;-83
2022/01/16 11:33:17;;;;;;;10.83;6.57;;;;;;;-141.59;100.00;61776.25;4948859;28;20215;-83
2022/01/16 11:35:48;;;;;;;10.83;6.30;;;;;;;-141.59;100.00;61776.25;4938112;28;20212;-84
2022/01/16 11:38:16;;;;;;;10.70;7.07;;;;;;;-141.59;100.00;61776.25;4964958;28;20264;-83
2022/01/16 11:40:46;;;;;;;9.73;5.93;;;;;;;-141.59;100.00;61776.25;4954806;28;20255;-83
2022/01/16 11:43:19;;;;;;;11.23;6.50;;;;;;;-141.59;100.00;61776.25;4945143;28;20275;-83
2022/01/16 11:45:49;;;;;;;10.90;6.63;;;;;;;-141.59;100.00;61776.25;4949593;28;20305;-84
2022/01/16 11:48:34;;;;;;;10.10;6.17;;;;;;;-141.59;100.00;61776.25;4964506;28;20207;-83